Aspinwall, Pennsylvania
Current Conditions -  °F | °C
As of 9:53 AM on Wednesday 26 Nov 2014 (Local Time) from KAGC Reporting Station
Light Snow Light Snow  
Wind Chill: 26°   Ceiling: 2000
Heat Index: 31°   Visibility: 0.75mi
Dew Point: 26°   Wind: 5mph
Humidity: 82%   Direction: 360°N
Pressure: 30.07"   Gusts: NA
Location:  40.5049°N, 79.9132°W
Report Text: KAGC 261453Z 36004KT 3/4SM R28/5000V6000FT -SN OVC020 M01/M03 A3007 RMK AO2 SNB20 SLP199 P0000 60000 T10061033 53004
Loading
Personal Weather Stations






























Interactive Weather Map New forecast layout! Learn more

10-Day Weather Forecast

Advertisements
Track Severe Weather on mobile